Time;durP1;ratioP1;P1;durP2;ratioP2;P2;SDS_P1;SDS_P2;PMS_P1;PMS_P2;Temp;Humidity;BMP_temperature;BMP_pressure;BME280_temperature;BME280_humidity;BME280_pressure;Samples;Min_cycle;Max_cycle;Signal;HPM_P1;HPM_P2
2021/03/29 00:02:17;;;;;;;18.05;5.43;;;;;;;9.32;73.59;102316.72;10214741;28;20081;-69
2021/03/29 00:07:13;;;;;;;13.20;4.90;;;;;;;9.30;73.69;102308.78;10220054;28;20556;-69
2021/03/29 00:12:10;;;;;;;13.63;4.50;;;;;;;9.29;72.82;102307.16;10237418;28;20084;-70
2021/03/29 00:17:07;;;;;;;12.63;4.53;;;;;;;9.31;73.48;102299.53;10263750;28;20407;-67
2021/03/29 00:22:04;;;;;;;20.02;4.72;;;;;;;9.35;72.54;102295.19;10264655;28;20072;-67
2021/03/29 00:27:01;;;;;;;13.15;3.70;;;;;;;9.32;73.72;102273.84;10255115;28;20060;-67
2021/03/29 00:31:59;;;;;;;13.48;3.83;;;;;;;9.36;72.84;102266.78;10266152;28;20053;-67
2021/03/29 00:36:55;;;;;;;12.40;3.58;;;;;;;9.35;73.25;102265.16;10269361;28;20041;-67
2021/03/29 00:41:51;;;;;;;12.60;3.78;;;;;;;9.36;72.94;102263.22;10252774;28;20082;-67
2021/03/29 00:46:48;;;;;;;9.50;3.30;;;;;;;9.38;73.04;102278.25;10237440;28;20090;-67
2021/03/29 00:51:46;;;;;;;9.70;3.58;;;;;;;9.40;72.49;102275.22;10281331;28;20095;-66
2021/03/29 00:56:43;;;;;;;9.27;3.58;;;;;;;9.42;72.97;102279.34;10265513;28;20049;-67
2021/03/29 01:01:43;;;;;;;16.83;3.72;;;;;;;9.40;72.79;102292.44;10285375;28;20111;-67
2021/03/29 01:06:43;;;;;;;13.93;3.35;;;;;;;9.45;72.04;102276.06;11203388;22;20148;-68
2021/03/29 01:12:03;;;;;;;12.13;3.55;;;;;;;9.44;72.08;102265.41;10222914;28;20127;-68
2021/03/29 01:17:05;;;;;;;12.02;3.08;;;;;;;9.42;71.92;102273.88;10211838;28;20567;-70
2021/03/29 01:22:05;;;;;;;15.18;4.20;;;;;;;9.47;71.65;102271.16;10217243;28;20461;-70
2021/03/29 01:27:03;;;;;;;10.93;3.17;;;;;;;9.46;71.79;102266.78;10213705;28;20072;-70
2021/03/29 01:32:01;;;;;;;15.15;4.10;;;;;;;9.50;71.29;102269.78;10210298;28;20053;-70
2021/03/29 01:36:59;;;;;;;17.20;3.97;;;;;;;9.51;70.58;102263.22;10210653;28;20522;-70
2021/03/29 01:41:56;;;;;;;10.18;3.20;;;;;;;9.53;70.41;102265.69;10211343;28;20049;-65
2021/03/29 01:46:54;;;;;;;14.10;4.10;;;;;;;9.55;70.15;102274.44;10218481;28;20450;-64
2021/03/29 01:51:51;;;;;;;11.65;4.15;;;;;;;9.57;69.87;102280.44;10218667;28;20045;-63
2021/03/29 01:56:48;;;;;;;12.80;4.05;;;;;;;9.55;70.24;102272.50;10209174;28;20049;-69
2021/03/29 02:01:48;;;;;;;11.70;3.92;;;;;;;9.55;69.84;102271.69;10221913;28;20061;-69
2021/03/29 02:06:44;;;;;;;13.95;4.03;;;;;;;9.54;69.64;102256.38;10216226;28;20057;-67
2021/03/29 02:11:41;;;;;;;9.25;3.63;;;;;;;9.55;69.47;102244.41;10220109;28;20053;-67
2021/03/29 02:16:38;;;;;;;15.70;4.18;;;;;;;9.55;69.20;102233.47;10210477;28;20046;-69
2021/03/29 02:21:37;;;;;;;16.10;4.88;;;;;;;9.54;68.92;102242.75;10214536;28;20057;-68
2021/03/29 02:26:39;;;;;;;10.85;4.10;;;;;;;9.54;69.54;102226.34;10211467;28;20080;-69
2021/03/29 02:31:36;;;;;;;12.70;3.95;;;;;;;9.53;69.05;102224.72;10210825;28;20057;-68
2021/03/29 02:36:33;;;;;;;13.20;4.07;;;;;;;9.56;68.82;102224.16;10198785;28;20049;-68
2021/03/29 02:41:30;;;;;;;11.23;3.50;;;;;;;9.55;68.68;102234.28;10211250;28;20136;-68
2021/03/29 02:46:29;;;;;;;12.30;3.90;;;;;;;9.58;68.27;102241.09;10215762;28;20103;-69
2021/03/29 02:51:26;;;;;;;16.65;4.72;;;;;;;9.55;68.47;102244.41;10215529;28;20053;-69
2021/03/29 02:56:27;;;;;;;15.27;4.00;;;;;;;9.53;68.60;102252.03;10208138;28;20479;-69
2021/03/29 03:01:25;;;;;;;11.02;4.00;;;;;;;9.56;68.28;102248.75;10209584;28;20053;-69
2021/03/29 03:06:26;;;;;;;12.02;3.83;;;;;;;9.55;68.07;102244.41;10217141;28;20046;-68
2021/03/29 03:11:22;;;;;;;13.63;4.20;;;;;;;9.56;68.16;102241.41;10212006;28;20112;-68
2021/03/29 03:16:19;;;;;;;12.05;4.25;;;;;;;9.56;67.82;102229.63;10201107;28;20243;-69
2021/03/29 03:21:17;;;;;;;10.93;4.10;;;;;;;9.56;68.03;102235.94;10220474;28;20118;-69
2021/03/29 03:26:15;;;;;;;12.65;4.13;;;;;;;9.57;68.43;102244.94;10207542;28;20103;-66
2021/03/29 03:31:11;;;;;;;12.48;4.55;;;;;;;9.60;68.30;102249.84;10201211;28;20380;-65
2021/03/29 03:36:08;;;;;;;14.48;3.83;;;;;;;9.57;68.61;102250.41;10213639;28;20053;-70
2021/03/29 03:41:07;;;;;;;11.65;3.80;;;;;;;9.58;67.86;102254.75;10197067;28;20116;-67
2021/03/29 03:46:14;;;;;;;11.85;4.40;;;;;;;9.57;68.41;102258.59;10201149;28;20053;-69
2021/03/29 03:51:13;;;;;;;13.27;3.88;;;;;;;9.55;67.85;102256.13;10207774;28;20061;-70
2021/03/29 03:56:10;;;;;;;14.68;4.70;;;;;;;9.53;68.09;102252.03;10213472;28;20419;-67
2021/03/29 04:01:08;;;;;;;16.80;4.55;;;;;;;9.57;68.21;102248.47;10211049;28;20053;-70
2021/03/29 04:06:04;;;;;;;11.27;3.97;;;;;;;9.59;69.14;102250.94;10204368;28;20049;-70
2021/03/29 04:11:15;;;;;;;16.27;4.22;;;;;;;9.61;67.60;102248.78;10209940;28;20104;-67
2021/03/29 04:16:11;;;;;;;13.93;4.07;;;;;;;9.62;67.83;102277.72;10218262;28;20095;-70
2021/03/29 04:21:07;;;;;;;14.38;3.65;;;;;;;9.65;67.15;102271.69;10211543;28;20509;-72
2021/03/29 04:26:04;;;;;;;10.23;3.83;;;;;;;9.64;66.81;102270.06;10224314;28;20049;-71
2021/03/29 04:31:00;;;;;;;14.63;3.95;;;;;;;9.65;66.49;102252.56;10231654;28;20446;-71
2021/03/29 04:35:58;;;;;;;17.52;4.00;;;;;;;9.63;67.67;102273.88;10222710;28;20057;-68
2021/03/29 04:40:54;;;;;;;16.13;4.13;;;;;;;9.52;68.81;102266.78;10210678;28;20053;-64
2021/03/29 04:45:51;;;;;;;13.45;4.10;;;;;;;9.39;69.82;102266.22;10224546;28;20041;-69
2021/03/29 04:50:47;;;;;;;10.90;3.65;;;;;;;9.41;68.76;102255.84;10207535;28;20042;-68
2021/03/29 04:55:43;;;;;;;12.07;3.85;;;;;;;9.43;68.27;102253.66;10211578;28;20685;-68
2021/03/29 05:00:39;;;;;;;9.80;3.47;;;;;;;9.45;68.80;102256.13;10222310;28;20047;-67
2021/03/29 05:05:35;;;;;;;14.95;4.70;;;;;;;9.51;68.10;102254.22;10225458;28;20054;-67
2021/03/29 05:10:31;;;;;;;15.18;4.28;;;;;;;9.52;68.14;102267.59;10223890;28;20049;-65
2021/03/29 05:15:28;;;;;;;9.27;3.90;;;;;;;9.56;67.34;102267.88;10219931;28;20068;-66
2021/03/29 05:20:24;;;;;;;13.70;3.97;;;;;;;9.57;67.10;102273.06;10218075;28;20045;-65
2021/03/29 05:25:20;;;;;;;17.75;4.65;;;;;;;9.60;66.66;102280.69;10223915;28;20061;-63
2021/03/29 05:30:17;;;;;;;14.55;3.50;;;;;;;9.63;66.56;102257.47;10211854;28;20119;-66
2021/03/29 05:35:13;;;;;;;14.63;3.50;;;;;;;9.62;66.92;102250.41;10223761;28;20050;-67
2021/03/29 05:40:16;;;;;;;12.07;3.47;;;;;;;9.65;66.66;102277.16;10212458;28;20084;-70
2021/03/29 05:45:13;;;;;;;13.70;3.65;;;;;;;9.70;66.13;102263.50;10215015;28;20466;-66
2021/03/29 05:50:14;;;;;;;10.18;3.35;;;;;;;9.71;65.59;102270.59;10219021;28;20060;-66
2021/03/29 05:55:21;;;;;;;15.13;4.35;;;;;;;9.74;64.98;102278.25;10202116;28;20085;-68
2021/03/29 06:00:44;;;;;;;10.23;3.90;;;;;;;9.77;65.27;102279.59;10203266;28;20115;-67
2021/03/29 06:05:40;;;;;;;15.00;4.25;;;;;;;9.81;65.30;102281.50;10209520;28;20119;-67
2021/03/29 06:10:37;;;;;;;14.73;3.28;;;;;;;9.82;65.07;102283.16;10211031;28;20052;-67
2021/03/29 06:15:33;;;;;;;11.10;3.38;;;;;;;9.84;65.76;102272.78;10200095;28;20049;-66
2021/03/29 06:20:29;;;;;;;14.50;3.42;;;;;;;9.84;65.50;102286.44;10216093;28;20053;-68
2021/03/29 06:25:25;;;;;;;13.55;3.65;;;;;;;9.88;64.86;102279.31;10205662;28;20512;-65
2021/03/29 06:30:34;;;;;;;16.13;3.60;;;;;;;9.89;65.04;102278.25;10220982;28;20407;-69
2021/03/29 06:35:32;;;;;;;16.15;3.67;;;;;;;9.95;64.50;102270.03;10220211;28;20499;-68
2021/03/29 06:40:28;;;;;;;13.48;3.92;;;;;;;10.05;63.40;102280.97;10210511;28;20080;-68
2021/03/29 06:45:24;;;;;;;10.25;3.35;;;;;;;10.22;63.97;102259.59;10218815;28;20061;-65
2021/03/29 06:50:27;;;;;;;11.63;3.55;;;;;;;10.29;63.42;102260.13;10219420;28;20053;-68
2021/03/29 06:55:26;;;;;;;13.30;3.67;;;;;;;10.33;63.69;102282.28;10221414;28;20449;-66
2021/03/29 07:00:33;;;;;;;14.65;3.72;;;;;;;10.43;63.89;102278.69;10217695;28;20061;-65
2021/03/29 07:05:31;;;;;;;10.60;3.47;;;;;;;10.17;65.36;102278.75;10219252;28;20153;-67
2021/03/29 07:10:28;;;;;;;18.60;4.18;;;;;;;10.14;66.60;102290.22;10212891;28;20152;-64
2021/03/29 07:15:25;;;;;;;16.58;3.83;;;;;;;10.13;67.35;102299.50;10215960;28;20119;-70
2021/03/29 07:20:25;;;;;;;16.00;3.67;;;;;;;10.20;66.38;102283.66;10212863;28;20132;-65
2021/03/29 07:25:32;;;;;;;9.75;3.08;;;;;;;10.31;65.75;102290.75;10216566;28;20503;-65
2021/03/29 07:30:43;;;;;;;13.07;3.55;;;;;;;10.42;64.97;102307.97;10228227;28;20041;-67
2021/03/29 07:35:50;;;;;;;16.67;3.63;;;;;;;10.57;64.40;102300.81;10209680;28;20484;-63
2021/03/29 07:40:49;;;;;;;13.02;3.45;;;;;;;10.65;64.51;102302.94;10208017;28;20453;-67
2021/03/29 07:46:03;;;;;;;13.60;3.17;;;;;;;10.82;64.23;102317.13;10217047;28;20053;-67
2021/03/29 07:51:01;;;;;;;12.20;3.30;;;;;;;10.90;63.13;102315.69;10217618;28;20057;-65
2021/03/29 07:55:57;;;;;;;11.73;3.58;;;;;;;10.90;62.87;102323.91;10209967;28;20518;-65
2021/03/29 08:01:07;;;;;;;8.45;2.97;;;;;;;10.95;63.21;102315.69;10210195;28;20046;-68
2021/03/29 08:06:03;;;;;;;14.23;3.88;;;;;;;11.03;63.00;102306.88;10210138;28;20057;-67
2021/03/29 08:11:09;;;;;;;11.38;3.17;;;;;;;11.26;62.31;102321.00;10216706;28;20049;-68
2021/03/29 08:16:07;;;;;;;10.68;3.40;;;;;;;11.29;62.54;102336.84;10209339;28;20042;-66
2021/03/29 08:21:03;;;;;;;13.60;3.88;;;;;;;11.25;62.64;102328.38;10212261;28;20546;-68
2021/03/29 08:26:09;;;;;;;19.25;3.97;;;;;;;11.29;62.52;102353.28;10216444;28;20069;-68
2021/03/29 08:31:05;;;;;;;12.40;4.10;;;;;;;11.35;62.72;102352.97;10215629;28;20572;-65
2021/03/29 08:36:04;;;;;;;9.55;3.40;;;;;;;11.37;63.20;102360.88;10217182;28;20041;-68
2021/03/29 08:41:01;;;;;;;19.23;3.55;;;;;;;11.30;63.17;102343.94;10208001;28;20049;-68
2021/03/29 08:45:59;;;;;;;12.75;3.10;;;;;;;11.32;63.38;102355.44;10215917;28;20128;-64
2021/03/29 08:50:55;;;;;;;9.40;3.20;;;;;;;11.49;63.49;102364.13;10214804;28;20656;-68
2021/03/29 08:55:51;;;;;;;14.25;3.25;;;;;;;11.56;62.36;102366.53;10212427;28;20045;-68
2021/03/29 09:00:47;;;;;;;13.50;3.63;;;;;;;11.70;61.70;102364.00;10206131;28;20065;-68
2021/03/29 09:05:43;;;;;;;11.90;4.50;;;;;;;11.79;61.59;102352.13;10222732;28;20053;-64
2021/03/29 09:10:43;;;;;;;12.73;3.67;;;;;;;11.96;61.25;102357.22;10219078;28;20450;-67
2021/03/29 09:15:44;;;;;;;11.40;3.35;;;;;;;11.97;61.06;102380.78;10213915;28;20083;-67
2021/03/29 09:20:43;;;;;;;10.93;3.35;;;;;;;12.02;61.29;102373.63;10215196;28;20057;-68
2021/03/29 09:25:42;;;;;;;9.77;3.63;;;;;;;12.19;60.59;102388.53;10220403;28;20456;-68
2021/03/29 09:30:39;;;;;;;15.75;3.60;;;;;;;12.41;60.66;102403.69;10220376;28;20100;-68
2021/03/29 09:35:35;;;;;;;11.48;3.97;;;;;;;12.67;60.00;102409.78;10217722;28;20139;-65
2021/03/29 09:40:36;;;;;;;12.50;3.85;;;;;;;12.95;59.84;102410.81;10216090;28;20076;-67
2021/03/29 09:45:34;;;;;;;12.02;3.50;;;;;;;13.20;59.19;102408.84;10217343;28;20049;-67
2021/03/29 09:50:43;;;;;;;13.18;4.03;;;;;;;13.10;59.18;102434.53;10217644;28;20057;-67
2021/03/29 09:55:57;;;;;;;7.47;3.47;;;;;;;13.28;58.81;102412.94;10211231;28;20069;-67
2021/03/29 10:00:56;;;;;;;12.45;4.07;;;;;;;13.42;58.75;102425.63;10209285;28;20052;-67
2021/03/29 10:06:16;;;;;;;12.80;3.95;;;;;;;13.32;58.22;102422.19;10213093;28;20050;-67
2021/03/29 10:11:12;;;;;;;15.68;4.15;;;;;;;13.58;57.84;102434.50;10212635;28;20065;-67
2021/03/29 10:16:26;;;;;;;11.75;2.97;;;;;;;13.83;56.73;102443.47;10212609;28;20734;-66
2021/03/29 10:22:14;;;;;;;12.73;3.80;;;;;;;13.99;56.35;102433.06;10207983;28;20053;-64
2021/03/29 10:27:10;;;;;;;11.35;4.18;;;;;;;14.37;55.77;102439.31;10220985;28;20076;-68
2021/03/29 10:32:11;;;;;;;13.63;3.67;;;;;;;14.47;55.59;102435.56;10215664;28;20067;-67
2021/03/29 10:37:24;;;;;;;14.00;4.30;;;;;;;15.05;54.80;102434.22;10193291;28;20456;-68
2021/03/29 10:42:24;;;;;;;14.85;4.05;;;;;;;15.00;55.00;102450.84;10208628;28;20054;-68
2021/03/29 10:47:22;;;;;;;13.70;4.03;;;;;;;15.96;52.02;102427.81;10207272;28;20049;-66
2021/03/29 10:52:19;;;;;;;11.15;3.50;;;;;;;16.59;50.92;102424.00;10215420;28;20875;-66
2021/03/29 10:57:15;;;;;;;16.92;4.15;;;;;;;16.89;49.58;102432.59;10204630;28;20049;-67
2021/03/29 11:02:12;;;;;;;9.68;3.92;;;;;;;16.53;49.99;102429.97;10216227;28;20392;-67
2021/03/29 11:07:08;;;;;;;8.77;3.50;;;;;;;17.51;49.17;102425.28;10215356;28;20049;-68
2021/03/29 11:12:04;;;;;;;10.98;3.80;;;;;;;17.42;48.07;102423.31;10213853;28;20834;-67
2021/03/29 11:17:01;;;;;;;11.52;4.60;;;;;;;17.26;49.08;102441.50;10216305;28;20091;-66
2021/03/29 11:21:57;;;;;;;11.15;4.20;;;;;;;16.77;50.51;102440.66;10210184;28;20135;-65
2021/03/29 11:26:53;;;;;;;15.00;4.30;;;;;;;16.71;50.47;102448.28;10221745;28;20099;-65
2021/03/29 11:31:49;;;;;;;11.50;3.53;;;;;;;17.09;50.39;102442.25;10216101;28;20045;-68
2021/03/29 11:36:45;;;;;;;8.18;4.15;;;;;;;17.56;49.35;102461.88;10217700;28;20037;-68
2021/03/29 11:41:41;;;;;;;9.25;3.80;;;;;;;18.00;48.73;102459.19;10218927;28;20064;-66
2021/03/29 11:46:38;;;;;;;12.07;4.15;;;;;;;18.09;48.15;102462.75;10221923;28;20403;-67
2021/03/29 11:51:34;;;;;;;9.40;3.88;;;;;;;18.51;46.04;102487.94;10222032;28;20077;-67
2021/03/29 11:56:37;;;;;;;11.80;4.68;;;;;;;18.47;46.33;102473.09;10206232;28;20051;-68
2021/03/29 12:06:39;;;;;;;10.18;4.82;;;;;;;19.63;44.35;102460.03;10217790;28;20479;-68
2021/03/29 12:16:52;;;;;;;12.45;4.57;;;;;;;18.86;45.94;102474.81;10215189;28;20050;-69
2021/03/29 12:21:50;;;;;;;7.97;4.28;;;;;;;18.74;46.93;102465.56;10209399;28;20493;-69
2021/03/29 12:26:48;;;;;;;10.20;5.30;;;;;;;19.00;45.78;102463.50;10216185;28;20073;-69
2021/03/29 12:31:46;;;;;;;12.25;4.15;;;;;;;19.86;44.47;102455.81;10217189;28;20045;-66
2021/03/29 12:36:48;;;;;;;9.82;4.43;;;;;;;20.48;43.58;102464.38;10212216;28;20137;-66
2021/03/29 12:41:49;;;;;;;11.85;4.55;;;;;;;20.35;43.24;102467.13;10210313;28;20550;-66
2021/03/29 12:46:49;;;;;;;10.63;4.50;;;;;;;20.60;42.58;102461.66;10215368;28;20096;-68
2021/03/29 12:51:51;;;;;;;13.40;4.32;;;;;;;20.12;43.53;102469.47;10219581;28;20153;-68
2021/03/29 12:56:47;;;;;;;10.15;4.95;;;;;;;19.62;44.95;102472.31;10216487;28;20045;-69
2021/03/29 13:01:43;;;;;;;10.85;5.03;;;;;;;19.87;45.34;102468.53;10219229;28;20049;-69
2021/03/29 13:11:56;;;;;;;11.63;4.53;;;;;;;19.84;45.46;102451.75;10222927;28;20515;-66
2021/03/29 13:16:52;;;;;;;9.35;4.70;;;;;;;18.97;47.19;102466.16;10223340;28;20455;-68
2021/03/29 13:21:48;;;;;;;9.65;4.50;;;;;;;19.44;47.16;102461.31;10219618;28;20053;-68
2021/03/29 13:26:44;;;;;;;9.05;5.07;;;;;;;20.32;44.31;102462.25;10215589;28;20420;-68
2021/03/29 13:31:54;;;;;;;10.10;4.45;;;;;;;20.87;43.09;102476.06;10221966;28;20054;-67
2021/03/29 13:36:50;;;;;;;11.88;4.10;;;;;;;20.25;44.83;102478.66;10218565;28;20080;-68
2021/03/29 13:41:46;;;;;;;9.60;4.38;;;;;;;19.69;45.89;102483.72;10220215;28;20056;-67
2021/03/29 13:46:45;;;;;;;13.15;4.43;;;;;;;20.28;45.58;102477.16;10219655;28;20069;-68
2021/03/29 13:51:44;;;;;;;9.25;4.63;;;;;;;20.29;45.27;102482.38;10216535;28;20046;-68
2021/03/29 13:56:40;;;;;;;14.52;5.20;;;;;;;19.83;46.37;102484.25;10215780;28;20050;-65
2021/03/29 14:01:36;;;;;;;9.25;3.92;;;;;;;19.25;48.24;102485.91;10221686;28;20123;-65
2021/03/29 14:06:33;;;;;;;12.50;5.60;;;;;;;18.91;48.85;102482.13;10217490;28;20470;-66
2021/03/29 14:11:29;;;;;;;14.18;5.10;;;;;;;19.09;48.94;102483.69;10221108;28;20099;-67
2021/03/29 14:16:25;;;;;;;12.52;4.60;;;;;;;19.43;47.92;102481.88;10217242;28;20050;-68
2021/03/29 14:21:23;;;;;;;11.45;5.13;;;;;;;19.74;47.26;102480.72;10217801;28;20049;-68
2021/03/29 14:26:20;;;;;;;14.50;5.72;;;;;;;19.09;49.36;102483.69;10219775;28;20037;-66
2021/03/29 14:31:17;;;;;;;10.43;5.00;;;;;;;19.40;48.37;102482.56;10223032;28;20045;-69
2021/03/29 14:46:13;;;;;;;11.93;4.50;;;;;;;20.71;46.21;102496.19;10213764;28;20052;-70
2021/03/29 14:51:09;;;;;;;12.43;4.65;;;;;;;20.76;45.33;102493.19;10225776;28;20053;-68
2021/03/29 14:56:06;;;;;;;11.98;4.22;;;;;;;21.05;44.71;102485.81;10220607;28;20060;-69
2021/03/29 15:01:03;;;;;;;10.57;5.10;;;;;;;20.44;46.26;102496.78;10223350;28;20053;-68
2021/03/29 15:10:55;;;;;;;11.80;4.70;;;;;;;20.13;46.99;102509.97;10225910;28;20136;-66
2021/03/29 15:15:51;;;;;;;11.57;5.07;;;;;;;19.95;48.36;102506.50;10226643;28;20053;-67
2021/03/29 15:20:47;;;;;;;12.13;4.50;;;;;;;19.76;48.83;102511.72;10221578;28;20558;-65
2021/03/29 15:25:44;;;;;;;8.75;4.03;;;;;;;20.05;47.71;102507.25;10217853;28;20045;-68
2021/03/29 15:30:42;;;;;;;17.00;5.57;;;;;;;19.72;48.57;102502.44;10212588;28;20064;-67
2021/03/29 15:35:38;;;;;;;14.98;5.32;;;;;;;20.43;47.19;102497.94;10212629;28;20119;-66
2021/03/29 15:40:34;;;;;;;13.23;4.88;;;;;;;20.45;47.02;102498.41;10216616;28;20053;-66
2021/03/29 15:45:30;;;;;;;11.73;5.65;;;;;;;19.93;47.94;102511.59;10216026;28;20466;-68
2021/03/29 15:50:26;;;;;;;12.43;6.30;;;;;;;19.64;49.03;102520.75;10215330;28;20053;-66
2021/03/29 15:55:22;;;;;;;16.23;4.82;;;;;;;19.84;48.60;102513.66;10217929;28;20049;-67
2021/03/29 16:00:21;;;;;;;11.65;4.93;;;;;;;20.13;48.30;102537.72;10216333;28;20056;-66
2021/03/29 16:05:17;;;;;;;12.90;5.88;;;;;;;20.29;47.53;102532.38;10215798;28;20450;-65
2021/03/29 16:10:14;;;;;;;9.93;4.93;;;;;;;19.89;47.55;102538.41;10219230;28;20078;-68
2021/03/29 16:15:11;;;;;;;13.23;5.20;;;;;;;19.42;49.27;102541.25;10225372;28;20554;-67
2021/03/29 16:20:08;;;;;;;11.70;4.75;;;;;;;19.31;49.50;102529.75;10226514;28;20820;-64
2021/03/29 16:25:05;;;;;;;10.18;4.88;;;;;;;19.01;50.36;102542.75;10220429;28;20781;-66
2021/03/29 16:30:03;;;;;;;11.40;4.70;;;;;;;19.41;49.51;102549.94;10223480;28;20045;-65
2021/03/29 16:34:59;;;;;;;12.98;5.00;;;;;;;19.49;49.50;102549.06;10220036;28;20057;-68
2021/03/29 16:39:55;;;;;;;13.10;6.43;;;;;;;19.33;49.36;102554.38;10222270;28;20046;-67
2021/03/29 16:44:51;;;;;;;13.05;4.72;;;;;;;18.81;50.64;102565.63;10225981;28;20054;-67
2021/03/29 16:49:47;;;;;;;15.75;4.97;;;;;;;18.33;51.88;102574.94;10222306;28;20045;-65
2021/03/29 16:54:43;;;;;;;14.82;5.75;;;;;;;17.90;53.13;102582.06;10220739;28;20136;-68
2021/03/29 16:59:39;;;;;;;13.40;5.82;;;;;;;17.32;55.09;102583.97;10223024;28;20050;-69
2021/03/29 17:04:35;;;;;;;15.70;5.65;;;;;;;16.96;56.24;102598.72;10221169;28;20570;-68
2021/03/29 17:09:32;;;;;;;14.20;6.20;;;;;;;17.00;56.44;102602.50;10217013;28;20153;-66
2021/03/29 17:14:28;;;;;;;15.23;6.13;;;;;;;17.02;56.21;102603.00;10224768;28;20053;-67
2021/03/29 17:19:44;;;;;;;14.95;6.25;;;;;;;16.70;57.18;102608.75;10217023;28;20061;-67
2021/03/29 17:24:40;;;;;;;17.38;6.90;;;;;;;16.39;57.85;102602.03;10218380;28;20050;-68
2021/03/29 17:29:40;;;;;;;12.48;5.68;;;;;;;16.30;58.49;102614.13;10215389;28;20045;-68
2021/03/29 17:34:37;;;;;;;14.45;5.65;;;;;;;16.25;58.50;102617.81;10214823;28;20452;-65
2021/03/29 17:39:34;;;;;;;15.93;5.80;;;;;;;16.05;59.20;102623.78;10216309;28;20491;-68
2021/03/29 17:44:51;;;;;;;18.15;7.03;;;;;;;15.83;59.78;102621.75;10214383;28;20077;-65
2021/03/29 17:49:48;;;;;;;17.38;8.57;;;;;;;15.71;60.09;102613.97;10213820;28;20054;-67
2021/03/29 17:54:44;;;;;;;13.93;6.70;;;;;;;15.46;60.88;102612.53;10211888;28;20046;-68
2021/03/29 17:59:41;;;;;;;16.90;7.95;;;;;;;15.20;62.01;102625.94;10210855;28;20100;-67
2021/03/29 18:04:37;;;;;;;14.38;7.85;;;;;;;14.96;62.80;102632.41;10210364;28;20049;-67
2021/03/29 18:09:33;;;;;;;14.75;7.18;;;;;;;14.86;62.76;102627.91;10210063;28;20407;-69
2021/03/29 18:14:30;;;;;;;19.55;7.93;;;;;;;14.81;62.94;102641.75;10194608;28;20041;-67
2021/03/29 18:19:26;;;;;;;23.48;7.65;;;;;;;14.91;62.65;102651.78;10201017;28;20053;-67
2021/03/29 18:24:22;;;;;;;15.63;6.80;;;;;;;14.78;62.70;102658.88;10193882;28;20762;-65
2021/03/29 18:29:18;;;;;;;17.10;7.13;;;;;;;14.80;62.54;102672.34;10199463;28;20049;-67
2021/03/29 18:34:14;;;;;;;16.05;7.50;;;;;;;14.69;62.82;102671.66;10195081;28;20498;-70
2021/03/29 18:39:10;;;;;;;13.93;6.13;;;;;;;14.55;63.02;102676.28;10198141;28;20135;-67
2021/03/29 18:44:06;;;;;;;16.13;7.32;;;;;;;14.46;63.57;102679.69;10206355;28;20053;-69
2021/03/29 18:49:02;;;;;;;16.27;7.80;;;;;;;14.34;64.21;102693.03;10195849;28;20088;-66
2021/03/29 18:53:58;;;;;;;17.67;8.98;;;;;;;14.26;64.51;102696.47;10201662;28;20085;-68
2021/03/29 18:58:54;;;;;;;19.40;8.75;;;;;;;14.15;64.56;102700.44;10203709;28;20053;-68
2021/03/29 19:03:50;;;;;;;22.05;8.45;;;;;;;14.18;64.87;102700.69;10205322;28;20531;-67
2021/03/29 19:08:46;;;;;;;18.63;8.20;;;;;;;13.96;64.98;102714.16;10208633;28;20048;-68
2021/03/29 19:13:42;;;;;;;20.05;9.75;;;;;;;14.02;65.05;102713.00;10204332;28;20045;-68
2021/03/29 19:18:40;;;;;;;17.50;9.18;;;;;;;13.91;65.40;102717.78;10206079;28;20435;-69
2021/03/29 19:23:37;;;;;;;21.65;9.32;;;;;;;13.83;65.86;102715.66;10202446;28;20434;-68
2021/03/29 19:28:34;;;;;;;20.73;9.15;;;;;;;13.65;66.21;102709.81;10197702;28;20495;-68
2021/03/29 19:33:31;;;;;;;17.00;9.55;;;;;;;13.67;66.35;102707.59;10198770;28;20789;-64
2021/03/29 19:38:29;;;;;;;18.23;7.82;;;;;;;13.51;66.94;102711.59;10200701;28;20406;-66
2021/03/29 19:43:25;;;;;;;19.65;8.55;;;;;;;13.53;66.87;102716.78;10196550;28;20057;-66
2021/03/29 19:48:22;;;;;;;17.85;8.35;;;;;;;13.60;66.29;102718.09;10204186;28;20046;-68
2021/03/29 19:53:18;;;;;;;13.75;8.07;;;;;;;13.57;66.55;102718.66;10205722;28;20049;-68
2021/03/29 19:58:14;;;;;;;17.25;8.43;;;;;;;13.61;66.36;102724.41;10195960;28;20141;-71
2021/03/29 20:03:10;;;;;;;17.48;9.57;;;;;;;13.58;66.48;102731.31;10217232;28;21419;-68
2021/03/29 20:13:12;;;;;;;20.08;8.45;;;;;;;13.51;66.47;102725.34;10215798;28;20137;-69
2021/03/29 20:18:09;;;;;;;17.73;7.97;;;;;;;13.45;66.76;102738.28;10217086;28;20458;-69
2021/03/29 20:23:06;;;;;;;15.35;8.07;;;;;;;13.44;66.43;102741.34;10211542;28;20033;-71
2021/03/29 20:28:03;;;;;;;17.17;7.75;;;;;;;13.37;66.91;102738.91;10213901;28;20392;-70
2021/03/29 20:32:59;;;;;;;19.30;9.60;;;;;;;13.35;67.18;102740.31;10212226;28;20049;-71
2021/03/29 20:37:55;;;;;;;19.25;10.27;;;;;;;13.15;67.94;102736.56;10200256;28;20052;-71
2021/03/29 20:42:52;;;;;;;21.98;9.60;;;;;;;13.14;67.53;102745.94;10199139;28;20049;-70
2021/03/29 20:47:48;;;;;;;17.40;10.20;;;;;;;13.06;67.79;102743.78;10201905;28;20053;-67
2021/03/29 20:52:47;;;;;;;15.98;8.82;;;;;;;12.96;68.12;102746.59;10213358;28;20053;-70
2021/03/29 20:57:43;;;;;;;17.58;8.43;;;;;;;12.92;68.35;102740.03;10215660;28;20606;-69
2021/03/29 21:02:39;;;;;;;25.80;12.98;;;;;;;12.88;68.84;102744.44;10217384;28;20576;-65
2021/03/29 21:07:36;;;;;;;17.50;10.35;;;;;;;12.58;69.57;102743.53;10212381;28;20045;-69
2021/03/29 21:12:32;;;;;;;19.92;10.30;;;;;;;12.60;69.38;102744.03;10217151;28;20038;-68
2021/03/29 21:17:28;;;;;;;17.77;9.85;;;;;;;12.47;69.28;102739.19;10209499;28;20112;-70
2021/03/29 21:22:24;;;;;;;24.05;11.65;;;;;;;12.53;69.73;102727.91;10227238;28;20392;-70
2021/03/29 21:27:20;;;;;;;24.20;11.00;;;;;;;12.37;70.50;102729.91;10214486;28;20057;-70
2021/03/29 21:32:16;;;;;;;16.40;10.23;;;;;;;12.46;71.00;102734.78;10215321;28;20415;-69
2021/03/29 21:37:12;;;;;;;20.67;11.00;;;;;;;12.38;71.01;102748.00;10205810;28;20080;-71
2021/03/29 21:42:09;;;;;;;18.30;10.65;;;;;;;12.48;71.16;102736.16;10216865;28;20046;-72
2021/03/29 21:47:05;;;;;;;18.23;10.90;;;;;;;12.43;71.36;102744.41;10210746;28;20115;-67
2021/03/29 21:52:01;;;;;;;18.10;10.43;;;;;;;12.42;70.90;102749.06;10213600;28;20052;-68
2021/03/29 21:56:57;;;;;;;22.83;12.10;;;;;;;12.32;71.49;102754.63;10202138;28;20053;-73
2021/03/29 22:01:53;;;;;;;19.48;11.82;;;;;;;12.34;71.54;102755.13;10218111;28;20049;-74
2021/03/29 22:06:49;;;;;;;21.27;11.85;;;;;;;12.31;71.90;102741.97;10204276;28;20054;-68
2021/03/29 22:11:45;;;;;;;21.70;12.65;;;;;;;12.27;72.23;102751.06;10210620;28;20049;-70
2021/03/29 22:16:41;;;;;;;21.58;12.55;;;;;;;12.26;72.45;102750.25;10222182;28;20049;-72
2021/03/29 22:21:37;;;;;;;25.90;14.60;;;;;;;12.24;72.78;102757.91;10211817;28;20045;-70
2021/03/29 22:26:33;;;;;;;26.00;15.90;;;;;;;12.23;72.24;102767.25;10209295;28;20513;-70
2021/03/29 22:31:39;;;;;;;24.92;13.98;;;;;;;12.13;72.61;102768.09;10216123;28;20115;-68
2021/03/29 22:36:50;;;;;;;27.83;14.48;;;;;;;12.04;73.04;102763.47;10212232;28;20045;-70
2021/03/29 22:41:58;;;;;;;27.58;15.48;;;;;;;11.96;73.28;102762.94;10210088;28;20103;-72
2021/03/29 22:46:54;;;;;;;23.45;14.38;;;;;;;11.96;73.13;102762.94;10199793;28;20069;-72
2021/03/29 22:51:50;;;;;;;26.95;14.80;;;;;;;11.85;73.29;102761.28;10207542;28;20062;-73
2021/03/29 22:56:46;;;;;;;26.80;15.02;;;;;;;11.83;73.74;102763.47;10207933;28;20073;-72
2021/03/29 23:01:42;;;;;;;28.77;14.32;;;;;;;11.85;73.58;102766.75;10211788;28;20045;-73
2021/03/29 23:06:42;;;;;;;25.30;14.23;;;;;;;11.78;73.35;102760.72;10212960;28;20060;-72
2021/03/29 23:11:40;;;;;;;26.55;15.00;;;;;;;11.69;72.95;102759.66;10216555;28;20511;-69
2021/03/29 23:16:36;;;;;;;34.35;14.85;;;;;;;11.74;72.71;102762.38;10217385;28;20077;-71